Time;durP1;ratioP1;P1;durP2;ratioP2;P2;SDS_P1;SDS_P2;PMS_P1;PMS_P2;Temp;Humidity;BMP_temperature;BMP_pressure;BME280_temperature;BME280_humidity;BME280_pressure;Samples;Min_cycle;Max_cycle;Signal;HPM_P1;HPM_P2
2021/06/24 00:01:09;;;;;;;17.10;14.68;;;;;;;18.57;75.99;100093.02;256648;1104;115982;-74
2021/06/24 00:06:12;;;;;;;15.35;12.28;;;;;;;18.47;76.09;100091.17;254386;1104;117318;-74
2021/06/24 00:11:16;;;;;;;16.70;14.57;;;;;;;18.49;76.40;100086.30;255815;1104;116394;-73
2021/06/24 00:16:19;;;;;;;21.05;14.83;;;;;;;18.59;76.50;100057.64;255365;1104;116762;-73
2021/06/24 00:21:23;;;;;;;15.53;12.78;;;;;;;18.60;76.24;100076.30;255110;1104;116941;-73
2021/06/24 00:26:26;;;;;;;16.15;14.10;;;;;;;18.55;76.10;100083.58;254418;1104;117733;-73
2021/06/24 00:31:29;;;;;;;19.58;14.55;;;;;;;18.47;76.07;100066.88;255039;1104;117294;-73
2021/06/24 00:36:32;;;;;;;18.03;16.08;;;;;;;18.44;76.13;100059.33;254479;1104;116467;-74
2021/06/24 00:41:36;;;;;;;16.00;14.27;;;;;;;18.31;76.08;100068.05;255503;1104;115999;-74
2021/06/24 00:46:40;;;;;;;14.27;12.87;;;;;;;18.22;75.57;100045.42;254813;1104;116158;-74
2021/06/24 00:51:44;;;;;;;16.58;13.65;;;;;;;18.09;76.10;100024.43;254269;1100;115606;-73
2021/06/24 00:56:52;;;;;;;14.05;11.90;;;;;;;18.11;76.25;100012.28;254441;1103;115736;-73
2021/06/24 01:01:56;;;;;;;15.00;13.50;;;;;;;18.00;75.94;100018.83;254693;1104;116116;-72
2021/06/24 01:07:01;;;;;;;13.58;12.25;;;;;;;17.98;76.05;100009.39;254496;1104;115804;-74
2021/06/24 01:12:07;;;;;;;13.98;12.48;;;;;;;17.92;76.08;100011.30;254398;1104;115730;-73
2021/06/24 01:17:12;;;;;;;17.87;12.83;;;;;;;17.83;75.86;100018.34;254399;1104;115914;-73
2021/06/24 01:22:16;;;;;;;16.85;12.80;;;;;;;17.78;76.28;100027.25;254858;1104;116661;-73
2021/06/24 01:27:22;;;;;;;15.68;12.35;;;;;;;17.74;76.58;100031.58;254285;1104;115728;-73
2021/06/24 01:32:29;;;;;;;19.35;13.05;;;;;;;17.75;76.96;100027.80;254292;1104;115722;-73
2021/06/24 01:37:33;;;;;;;14.70;13.10;;;;;;;17.83;77.16;100031.83;254436;1099;115182;-73
2021/06/24 01:42:36;;;;;;;15.30;12.78;;;;;;;17.98;77.25;100030.97;254282;1104;210283;-74
2021/06/24 01:47:39;;;;;;;21.75;14.43;;;;;;;18.00;77.40;100043.11;254252;1104;116337;-74
2021/06/24 01:52:45;;;;;;;16.03;13.45;;;;;;;17.99;77.22;100049.58;255831;1104;115850;-73
2021/06/24 01:57:49;;;;;;;13.03;11.78;;;;;;;18.08;77.69;100052.48;254272;1099;116006;-72
2021/06/24 02:02:52;;;;;;;17.05;13.83;;;;;;;18.19;77.66;100054.07;254367;1104;115425;-73
2021/06/24 02:07:56;;;;;;;17.83;15.20;;;;;;;18.22;77.66;100050.82;254907;1103;115500;-74
2021/06/24 02:13:00;;;;;;;17.13;14.83;;;;;;;18.23;77.65;100055.13;257307;1104;115478;-74
2021/06/24 02:18:03;;;;;;;18.75;14.85;;;;;;;18.31;77.66;100041.07;256105;1104;115259;-73
2021/06/24 02:23:08;;;;;;;26.28;15.78;;;;;;;18.44;77.77;100047.73;255322;1104;116229;-73
2021/06/24 02:28:11;;;;;;;20.30;15.20;;;;;;;18.50;77.80;100042.02;254263;1099;115448;-72
2021/06/24 02:33:16;;;;;;;27.88;18.88;;;;;;;18.54;77.76;100044.17;255170;1100;115433;-74
2021/06/24 02:38:19;;;;;;;18.10;15.45;;;;;;;18.54;77.54;100049.56;254303;1104;116468;-72
2021/06/24 02:43:23;;;;;;;21.15;18.48;;;;;;;18.55;78.11;100072.78;254225;1104;116581;-73
2021/06/24 02:48:27;;;;;;;23.43;18.13;;;;;;;18.66;78.10;100069.75;254716;1100;115956;-73
2021/06/24 02:53:29;;;;;;;20.65;16.65;;;;;;;18.81;78.39;100087.77;254394;1104;116391;-73
2021/06/24 02:58:33;;;;;;;35.13;18.18;;;;;;;18.85;78.12;100086.13;254319;1104;116029;-73
2021/06/24 03:03:36;;;;;;;22.33;19.87;;;;;;;18.87;78.48;100075.04;254760;1104;116000;-74
2021/06/24 03:08:38;;;;;;;23.55;18.48;;;;;;;18.92;77.99;100046.10;255045;1104;115144;-74
2021/06/24 03:13:42;;;;;;;31.20;21.97;;;;;;;18.95;78.17;100018.52;254456;1104;115751;-74
2021/06/24 03:18:49;;;;;;;22.98;19.55;;;;;;;19.01;78.20;100001.16;254752;1104;118208;-74
2021/06/24 03:23:52;;;;;;;23.57;20.07;;;;;;;19.09;78.11;100003.25;254399;1104;117799;-74
2021/06/24 03:28:56;;;;;;;21.23;18.80;;;;;;;19.16;78.37;100011.84;254457;1097;116473;-74
2021/06/24 03:34:00;;;;;;;23.33;19.63;;;;;;;19.29;78.23;100047.38;254956;1099;116663;-74
2021/06/24 03:39:04;;;;;;;22.23;19.80;;;;;;;19.36;77.97;100045.97;254351;1104;117936;-74
2021/06/24 03:44:09;;;;;;;23.48;21.05;;;;;;;19.43;77.99;100007.80;254407;1104;116585;-74
2021/06/24 03:49:11;;;;;;;24.83;22.40;;;;;;;19.48;77.96;100000.44;254523;1104;116852;-74
2021/06/24 03:54:14;;;;;;;25.95;22.43;;;;;;;19.59;77.99;100030.08;255599;1104;115486;-75
2021/06/24 03:59:17;;;;;;;25.93;21.18;;;;;;;19.70;77.71;100035.10;254752;1104;115763;-72
2021/06/24 04:04:20;;;;;;;41.85;24.88;;;;;;;19.81;77.94;100031.20;254850;1104;115539;-71
2021/06/24 04:09:24;;;;;;;31.63;22.98;;;;;;;19.83;77.86;100020.09;255503;1104;116235;-72
2021/06/24 04:14:27;;;;;;;25.98;21.58;;;;;;;19.83;77.79;100012.78;257219;1104;116017;-70
2021/06/24 04:19:30;;;;;;;25.43;22.77;;;;;;;20.02;77.69;100003.88;257220;1104;116143;-72
2021/06/24 04:24:33;;;;;;;26.58;23.05;;;;;;;20.07;77.32;100001.12;254186;1104;115714;-71
2021/06/24 04:29:35;;;;;;;22.30;19.70;;;;;;;20.05;76.98;100008.72;254365;1104;137641;-70
2021/06/24 04:34:37;;;;;;;32.00;23.87;;;;;;;20.03;77.08;100019.02;254285;1104;115737;-70
2021/06/24 04:39:40;;;;;;;24.70;21.70;;;;;;;20.00;77.41;100023.11;254331;1104;116251;-71
2021/06/24 04:44:50;;;;;;;24.33;19.93;;;;;;;19.91;77.11;99999.69;254327;1104;115807;-70
2021/06/24 04:49:55;;;;;;;26.48;22.23;;;;;;;19.93;77.38;99956.91;254254;1104;115798;-70
2021/06/24 04:54:57;;;;;;;28.00;22.90;;;;;;;19.92;77.43;99928.25;254269;1104;115766;-71
2021/06/24 04:59:59;;;;;;;32.80;23.43;;;;;;;19.82;77.39;99983.31;254374;1104;116010;-73
2021/06/24 05:05:06;;;;;;;31.30;24.53;;;;;;;19.76;77.59;100044.78;254300;1104;115203;-74
2021/06/24 05:10:11;;;;;;;30.95;23.98;;;;;;;19.59;77.03;100149.88;254380;1099;116012;-75
2021/06/24 05:15:15;;;;;;;25.18;18.65;;;;;;;19.39;77.73;100055.41;254833;1104;119310;-76
2021/06/24 05:21:06;;;;;;;18.10;13.60;;;;;;;19.38;78.35;100007.84;261439;1104;102939;-74
2021/06/24 05:26:09;;;;;;;20.63;11.85;;;;;;;19.41;78.06;99985.64;254889;1104;114629;-73
2021/06/24 05:31:15;;;;;;;11.85;10.70;;;;;;;19.52;78.57;99945.82;254839;1104;115121;-76
2021/06/24 05:36:18;;;;;;;12.20;8.90;;;;;;;19.53;78.77;99956.34;254303;1100;115636;-72
2021/06/24 05:41:21;;;;;;;8.33;7.50;;;;;;;19.55;78.59;99935.23;254197;1104;203796;-70
2021/06/24 05:46:27;;;;;;;7.93;5.13;;;;;;;19.51;78.25;99993.69;254356;1100;114510;-73
2021/06/24 05:51:32;;;;;;;5.60;4.53;;;;;;;19.53;78.54;100009.63;254250;1104;114940;-74
2021/06/24 05:56:36;;;;;;;7.13;3.47;;;;;;;19.56;78.47;99973.90;254400;1104;114795;-74
2021/06/24 06:01:43;;;;;;;6.27;5.10;;;;;;;19.44;77.79;99964.25;255580;1104;114128;-74
2021/06/24 06:06:48;;;;;;;5.37;4.60;;;;;;;19.38;78.23;99915.93;254698;1104;114556;-72
2021/06/24 06:11:51;;;;;;;6.23;5.17;;;;;;;19.44;78.56;99912.08;256518;1104;114638;-75
2021/06/24 06:16:54;;;;;;;8.55;5.53;;;;;;;19.46;78.53;99915.30;254592;1104;115255;-73
2021/06/24 06:21:58;;;;;;;5.58;5.03;;;;;;;19.50;78.66;99957.73;254326;1104;115171;-72
2021/06/24 06:27:02;;;;;;;4.83;4.33;;;;;;;19.39;78.27;99963.50;255481;1104;115284;-73
2021/06/24 06:32:06;;;;;;;9.17;3.97;;;;;;;19.40;78.29;99955.10;255061;1104;115571;-74
2021/06/24 06:37:09;;;;;;;6.50;5.03;;;;;;;19.40;78.27;99895.63;254373;1104;115621;-72
2021/06/24 06:42:16;;;;;;;11.73;5.97;;;;;;;19.33;78.18;99781.64;255983;1104;115288;-75
2021/06/24 06:47:22;;;;;;;11.23;7.18;;;;;;;19.20;77.84;99739.14;255133;1099;137792;-77
2021/06/24 06:52:26;;;;;;;5.90;3.90;;;;;;;19.10;77.79;99686.03;254812;1104;115754;-78
2021/06/24 06:57:28;;;;;;;3.00;2.80;;;;;;;19.05;77.92;99675.30;254760;1104;115722;-77
2021/06/24 07:02:31;;;;;;;3.90;2.63;;;;;;;18.99;77.94;99767.50;254348;1100;117697;-77
2021/06/24 07:07:35;;;;;;;3.85;3.15;;;;;;;18.95;77.88;99764.59;254360;1104;116076;-77
2021/06/24 07:12:42;;;;;;;5.75;4.18;;;;;;;18.76;77.89;99793.44;254563;1104;116455;-78
2021/06/24 07:17:46;;;;;;;7.05;4.28;;;;;;;18.71;78.20;99747.58;254214;1104;116629;-76
2021/06/24 07:22:49;;;;;;;6.95;4.58;;;;;;;18.77;78.36;99786.94;254407;1104;115834;-76
2021/06/24 07:27:52;;;;;;;9.30;6.95;;;;;;;18.92;78.53;99792.19;254835;1104;116886;-73
2021/06/24 07:32:56;;;;;;;6.43;4.88;;;;;;;18.98;78.93;99850.44;254390;1104;115701;-75
2021/06/24 07:37:59;;;;;;;8.78;5.98;;;;;;;19.05;78.51;99874.41;254413;1099;116599;-75
2021/06/24 07:43:02;;;;;;;8.13;6.85;;;;;;;19.09;78.38;99886.27;254598;1104;115461;-75
2021/06/24 07:48:06;;;;;;;7.13;5.63;;;;;;;19.03;78.55;99917.13;254315;1104;115878;-75
2021/06/24 07:53:10;;;;;;;11.78;5.35;;;;;;;19.11;78.49;99932.72;254438;1104;115814;-73
2021/06/24 07:58:13;;;;;;;8.03;4.83;;;;;;;19.24;78.65;99958.27;254433;1104;116322;-74
2021/06/24 08:03:19;;;;;;;;;;;;;;;19.38;78.80;99968.09;255577;1104;115999;-74
2021/06/24 08:08:21;;;;;;;9.63;5.90;;;;;;;19.54;78.64;99955.26;258155;1104;102486;-75
2021/06/24 08:13:28;;;;;;;4.20;3.80;;;;;;;19.93;78.32;99948.80;256965;1104;115992;-75
2021/06/24 08:18:32;;;;;;;4.97;4.43;;;;;;;20.35;78.11;99958.77;257186;1104;116757;-76
2021/06/24 08:23:40;;;;;;;5.95;4.00;;;;;;;20.91;77.86;99950.56;255265;1104;115137;-74
2021/06/24 08:28:43;;;;;;;5.43;4.43;;;;;;;21.72;77.85;99935.45;257009;1104;115560;-76
2021/06/24 08:33:46;;;;;;;9.13;4.90;;;;;;;22.54;77.40;99914.64;256478;1104;115430;-75
2021/06/24 08:38:50;;;;;;;6.13;4.53;;;;;;;23.25;76.38;99913.58;255874;1104;114942;-76
2021/06/24 08:43:56;;;;;;;7.33;4.73;;;;;;;24.16;76.47;99904.64;254786;1104;114964;-75
2021/06/24 08:49:02;;;;;;;4.38;3.75;;;;;;;24.96;74.38;99891.43;254558;1100;116415;-75
2021/06/24 08:54:06;;;;;;;3.90;3.25;;;;;;;25.06;73.60;99888.34;254302;1104;115555;-74
2021/06/24 08:59:09;;;;;;;6.63;4.25;;;;;;;25.36;73.39;99897.36;254208;1104;114779;-74
2021/06/24 09:04:14;;;;;;;5.90;4.50;;;;;;;25.62;72.77;99886.28;254483;1104;114834;-74
2021/06/24 09:09:33;;;;;;;7.50;5.30;;;;;;;25.98;72.12;99874.81;254464;1099;115105;-74
2021/06/24 09:14:41;;;;;;;18.30;5.70;;;;;;;25.99;71.60;99871.72;254520;1104;115068;-74
2021/06/24 09:19:45;;;;;;;5.48;4.93;;;;;;;26.23;71.13;99864.78;254527;1104;114373;-74
2021/06/24 09:24:53;;;;;;;5.20;4.47;;;;;;;26.52;70.64;99870.16;254540;1104;115187;-73
2021/06/24 09:30:31;;;;;;;4.38;3.98;;;;;;;26.76;70.72;99878.41;254386;1104;115300;-75
2021/06/24 09:35:35;;;;;;;6.45;4.73;;;;;;;26.87;69.43;99867.83;254219;1104;115420;-74
2021/06/24 09:40:43;;;;;;;5.97;4.70;;;;;;;26.84;68.96;99868.51;254498;1104;115350;-75
2021/06/24 09:46:05;;;;;;;8.77;4.50;;;;;;;26.97;68.63;99872.87;254678;1104;114887;-73
2021/06/24 09:51:30;;;;;;;5.63;4.70;;;;;;;27.10;68.58;99882.69;254507;1104;115303;-78
2021/06/24 09:56:42;;;;;;;4.85;4.23;;;;;;;27.11;68.05;99889.77;254254;1104;115926;-77
2021/06/24 10:01:47;;;;;;;4.85;4.30;;;;;;;27.45;67.96;99882.23;253907;1107;115204;-77
2021/06/24 10:06:53;;;;;;;7.78;4.23;;;;;;;27.47;67.10;99880.75;254316;1104;114732;-79
2021/06/24 10:12:02;;;;;;;6.70;4.08;;;;;;;27.66;66.79;99899.34;254328;1104;115250;-79
2021/06/24 10:17:08;;;;;;;3.00;2.63;;;;;;;27.80;65.22;99894.31;257356;1097;114878;-78
2021/06/24 10:22:28;;;;;;;5.05;4.18;;;;;;;28.00;65.34;99908.17;254361;1104;115708;-76
2021/06/24 10:27:37;;;;;;;3.87;3.50;;;;;;;28.23;64.11;99903.78;257189;1104;116231;-79
2021/06/24 10:32:56;;;;;;;4.90;3.40;;;;;;;28.32;64.74;99903.64;256354;1104;115253;-78
2021/06/24 10:38:02;;;;;;;5.88;3.00;;;;;;;28.62;63.00;99906.81;254425;1104;114864;-78
2021/06/24 10:43:14;;;;;;;4.95;4.13;;;;;;;28.86;62.37;99901.20;254811;1104;115521;-79
2021/06/24 10:48:31;;;;;;;5.17;3.60;;;;;;;29.01;61.98;99902.38;255043;1103;115925;-79
2021/06/24 10:53:39;;;;;;;5.85;3.80;;;;;;;29.02;61.36;99910.25;254555;1104;116921;-80
2021/06/24 10:58:41;;;;;;;8.68;4.45;;;;;;;29.00;60.95;99904.32;254915;1097;116380;-77
2021/06/24 11:03:46;;;;;;;5.58;4.50;;;;;;;29.13;60.28;99908.55;255187;1104;115200;-78
2021/06/24 11:09:14;;;;;;;6.43;5.47;;;;;;;29.06;59.46;99900.14;254526;1104;115086;-77
2021/06/24 11:14:52;;;;;;;5.70;5.03;;;;;;;28.97;60.01;99902.28;254372;1104;115669;-74
2021/06/24 11:20:12;;;;;;;5.05;4.48;;;;;;;29.07;59.33;99896.23;254422;1104;115291;-77
2021/06/24 11:25:16;;;;;;;8.63;5.23;;;;;;;28.92;59.43;99905.28;254995;1102;115323;-76
2021/06/24 11:30:58;;;;;;;4.33;4.03;;;;;;;29.30;59.22;99906.61;254344;1104;115486;-78
2021/06/24 11:36:13;;;;;;;5.33;4.83;;;;;;;29.36;57.96;99908.70;254892;1104;115662;-78
2021/06/24 11:41:20;;;;;;;6.20;5.70;;;;;;;29.38;57.66;99900.91;254560;1104;114878;-78
2021/06/24 11:46:35;;;;;;;6.23;5.60;;;;;;;29.17;57.07;99897.66;254473;1104;115792;-75
2021/06/24 12:07:45;;;;;;;8.88;5.58;;;;;;;29.21;57.17;99890.31;255247;1104;114841;-78
2021/06/24 12:12:48;;;;;;;6.10;5.17;;;;;;;29.24;56.73;99886.86;254385;1098;115338;-79
2021/06/24 12:17:52;;;;;;;8.30;5.47;;;;;;;29.36;56.35;99872.21;255010;1104;114823;-78
2021/06/24 12:23:02;;;;;;;5.93;5.43;;;;;;;29.32;56.88;99868.61;254414;1104;114503;-80
2021/06/24 12:28:09;;;;;;;6.08;5.48;;;;;;;29.27;56.80;99866.14;257222;1103;114705;-76
2021/06/24 12:33:14;;;;;;;8.23;5.13;;;;;;;29.27;56.24;99861.44;257356;1103;115056;-80
2021/06/24 12:38:24;;;;;;;8.13;5.60;;;;;;;29.20;56.13;99868.70;256216;1104;115086;-76
2021/06/24 12:43:29;;;;;;;9.65;5.88;;;;;;;29.17;55.87;99867.47;257347;1104;193166;-77
2021/06/24 12:48:42;;;;;;;9.80;5.10;;;;;;;29.26;55.92;99862.59;257143;1103;115081;-76
2021/06/24 12:53:49;;;;;;;10.50;6.15;;;;;;;29.57;56.09;99852.72;254414;1104;115254;-76
2021/06/24 12:59:05;;;;;;;5.77;4.70;;;;;;;29.49;55.93;99847.06;255113;1104;114684;-77
2021/06/24 13:04:14;;;;;;;6.25;5.55;;;;;;;29.44;55.41;99852.03;254837;1104;115549;-82
2021/06/24 13:09:29;;;;;;;9.25;5.63;;;;;;;29.71;55.29;99831.03;255101;1104;114725;-81
2021/06/24 13:14:37;;;;;;;6.03;5.05;;;;;;;29.68;54.62;99827.05;254864;1104;195197;-75
2021/06/24 13:19:42;;;;;;;5.03;4.67;;;;;;;29.67;54.45;99825.47;254369;1104;115293;-76
2021/06/24 13:24:55;;;;;;;5.78;5.28;;;;;;;29.87;54.85;99825.48;254575;1099;115010;-78
2021/06/24 13:29:59;;;;;;;6.38;4.95;;;;;;;29.90;55.11;99811.03;254579;1104;115494;-80
2021/06/24 13:35:16;;;;;;;5.93;5.43;;;;;;;29.98;54.46;99808.03;254688;1104;136242;-78
2021/06/24 13:40:23;;;;;;;5.20;4.73;;;;;;;29.95;53.79;99797.00;254880;1104;114993;-76
2021/06/24 13:45:29;;;;;;;5.85;5.35;;;;;;;29.92;53.79;99787.52;254428;1104;139249;-77
2021/06/24 13:50:33;;;;;;;;;;;;;;;29.95;53.33;99781.30;255036;1104;114867;-77
2021/06/24 13:55:51;;;;;;;6.65;5.08;;;;;;;29.92;53.53;99782.03;255065;1104;103035;-74
2021/06/24 14:00:55;;;;;;;7.00;4.65;;;;;;;29.91;53.37;99785.14;254223;1104;115270;-79
2021/06/24 14:05:58;;;;;;;5.70;5.15;;;;;;;29.87;53.85;99776.03;254666;1104;114608;-75
2021/06/24 14:11:04;;;;;;;5.05;4.38;;;;;;;29.74;53.79;99765.17;254288;1104;115501;-74
2021/06/24 14:16:12;;;;;;;4.95;4.55;;;;;;;29.78;53.52;99763.30;255122;1104;115567;-76
2021/06/24 14:21:19;;;;;;;8.40;5.13;;;;;;;29.72;53.58;99759.24;254667;1104;115826;-74
2021/06/24 14:26:26;;;;;;;7.05;5.05;;;;;;;29.56;53.17;99747.55;257402;1104;115248;-78
2021/06/24 14:31:30;;;;;;;6.78;5.93;;;;;;;29.44;53.13;99756.72;255729;1103;116109;-75
2021/06/24 14:36:34;;;;;;;5.95;5.08;;;;;;;29.35;53.68;99764.33;254982;1104;115498;-73
2021/06/24 14:41:39;;;;;;;8.03;5.43;;;;;;;29.39;53.75;99769.90;257341;1104;115577;-77
2021/06/24 14:46:42;;;;;;;10.47;6.10;;;;;;;29.42;54.04;99764.52;257286;1104;114955;-80
2021/06/24 14:52:06;;;;;;;6.57;5.93;;;;;;;29.42;53.49;99766.47;254851;1096;207924;-75
2021/06/24 14:57:10;;;;;;;6.63;5.70;;;;;;;29.31;53.49;99768.17;255614;1103;115953;-78
2021/06/24 15:02:17;;;;;;;13.53;5.70;;;;;;;29.26;53.71;99752.78;256085;1099;115841;-77
2021/06/24 15:07:20;;;;;;;7.43;6.50;;;;;;;29.34;54.09;99750.98;255198;1104;116695;-77
2021/06/24 15:12:24;;;;;;;7.80;6.98;;;;;;;29.51;53.76;99742.34;254222;1104;115998;-76
2021/06/24 15:17:30;;;;;;;7.03;6.08;;;;;;;29.60;54.11;99742.13;254409;1099;116697;-77
2021/06/24 15:22:34;;;;;;;9.60;6.77;;;;;;;29.46;53.72;99726.94;254866;1099;116720;-76
2021/06/24 15:27:37;;;;;;;7.88;7.18;;;;;;;29.52;53.19;99721.16;254387;1099;115845;-80
2021/06/24 15:32:44;;;;;;;13.77;7.17;;;;;;;29.35;53.74;99711.39;254401;1104;114838;-78
2021/06/24 15:37:50;;;;;;;8.03;7.33;;;;;;;29.14;53.63;99701.53;254547;1103;115691;-77
2021/06/24 15:42:54;;;;;;;10.45;7.53;;;;;;;28.99;53.95;99696.91;254869;1104;115009;-77
2021/06/24 15:47:58;;;;;;;;;;;;;;;28.94;53.87;99693.64;254557;1104;114571;-76
2021/06/24 15:53:04;;;;;;;7.15;6.63;;;;;;;28.65;54.11;99692.17;255084;1104;102977;-76
2021/06/24 15:58:13;;;;;;;8.63;7.70;;;;;;;28.40;54.44;99700.61;254477;1104;116026;-75
2021/06/24 16:03:34;;;;;;;8.43;7.63;;;;;;;28.28;54.94;99705.37;254269;1104;116642;-75
2021/06/24 16:08:38;;;;;;;11.48;10.08;;;;;;;28.15;54.87;99708.16;254435;1104;117530;-77
2021/06/24 16:13:42;;;;;;;11.05;10.15;;;;;;;28.11;55.08;99709.23;254987;1104;116205;-76
2021/06/24 16:18:46;;;;;;;11.20;8.63;;;;;;;28.11;55.27;99711.98;254496;1104;116094;-76
2021/06/24 16:23:50;;;;;;;12.45;9.55;;;;;;;27.98;55.23;99697.55;254672;1104;118918;-77
2021/06/24 16:28:52;;;;;;;15.45;10.55;;;;;;;27.87;55.53;99714.84;254591;1103;115915;-75
2021/06/24 16:33:55;;;;;;;11.60;10.18;;;;;;;27.74;55.21;99698.48;254532;1099;116064;-77
2021/06/24 16:38:59;;;;;;;10.50;9.60;;;;;;;27.65;55.39;99697.83;254284;1104;116248;-75
2021/06/24 16:44:01;;;;;;;10.70;9.80;;;;;;;27.53;55.65;99702.52;254638;1104;116112;-78
2021/06/24 16:49:06;;;;;;;12.60;10.15;;;;;;;27.43;55.52;99698.36;257401;1104;116951;-79
2021/06/24 16:54:12;;;;;;;9.83;8.93;;;;;;;27.36;54.99;99698.15;257511;1104;115370;-76
2021/06/24 16:59:16;;;;;;;;;;;;;;;27.24;54.74;99698.97;255238;1104;115275;-75
2021/06/24 17:04:21;;;;;;;9.83;8.70;;;;;;;27.18;55.39;99691.38;255970;1104;103102;-78
2021/06/24 17:09:24;;;;;;;11.00;9.05;;;;;;;27.07;55.79;99688.31;255814;1104;114902;-76
2021/06/24 17:14:27;;;;;;;9.20;8.43;;;;;;;26.96;55.64;99690.72;254314;1104;115715;-78
2021/06/24 17:19:31;;;;;;;9.78;8.98;;;;;;;26.85;55.77;99684.12;254328;1098;115408;-74
2021/06/24 17:24:34;;;;;;;9.58;8.70;;;;;;;26.82;55.83;99706.69;254219;1104;115507;-78
2021/06/24 17:29:38;;;;;;;12.33;8.93;;;;;;;26.71;56.02;99743.83;254287;1104;115316;-81
2021/06/24 17:34:40;;;;;;;10.23;8.58;;;;;;;26.60;56.15;99773.55;254306;1103;115291;-79
2021/06/24 17:39:45;;;;;;;12.70;8.77;;;;;;;26.51;56.25;99775.61;254559;1100;115007;-81
2021/06/24 17:44:47;;;;;;;8.70;8.10;;;;;;;26.46;56.35;99771.16;254244;1104;117779;-79
2021/06/24 17:49:51;;;;;;;10.70;8.88;;;;;;;26.40;56.57;99771.70;254124;1104;115161;-79
2021/06/24 17:54:55;;;;;;;8.90;8.10;;;;;;;26.30;57.14;99766.64;254029;1100;115134;-79
2021/06/24 17:59:59;;;;;;;9.03;8.17;;;;;;;26.14;56.86;99791.89;254194;1104;139249;-76
2021/06/24 18:05:02;;;;;;;9.45;8.70;;;;;;;25.99;57.42;99810.86;254853;1104;114286;-79
2021/06/24 18:10:07;;;;;;;10.75;9.33;;;;;;;25.88;57.17;99812.39;253989;1100;114885;-79
2021/06/24 18:15:10;;;;;;;9.35;8.50;;;;;;;25.77;57.50;99793.67;254071;1104;115394;-79
2021/06/24 18:20:14;;;;;;;8.53;7.88;;;;;;;25.67;57.81;99796.83;255485;1104;117338;-80
2021/06/24 18:25:17;;;;;;;9.83;8.93;;;;;;;25.54;57.75;99797.85;255421;1100;114706;-79
2021/06/24 18:30:20;;;;;;;10.03;9.13;;;;;;;25.41;57.80;99785.25;254817;1104;114714;-78
2021/06/24 18:35:24;;;;;;;8.65;8.00;;;;;;;25.29;57.06;99766.90;256405;1104;115112;-79
2021/06/24 18:40:27;;;;;;;10.93;9.43;;;;;;;25.17;57.50;99774.99;257420;1104;115234;-80
2021/06/24 18:45:31;;;;;;;13.53;9.80;;;;;;;25.06;58.04;99777.33;257465;1103;114768;-80
2021/06/24 18:50:35;;;;;;;8.73;7.98;;;;;;;25.01;58.21;99795.80;257442;1104;135894;-80
2021/06/24 18:55:40;;;;;;;13.20;9.90;;;;;;;24.92;58.15;99803.98;255615;1104;115453;-80
2021/06/24 19:00:42;;;;;;;9.07;8.27;;;;;;;24.79;58.67;99797.62;257429;1104;115526;-81
2021/06/24 19:05:45;;;;;;;10.03;9.23;;;;;;;24.69;59.39;99797.20;255162;1104;115158;-79
2021/06/24 19:10:48;;;;;;;11.50;8.50;;;;;;;24.58;59.55;99791.30;254335;1104;115481;-80
2021/06/24 19:15:52;;;;;;;9.70;8.78;;;;;;;24.46;60.25;99789.25;255185;1104;115126;-80
2021/06/24 19:20:56;;;;;;;9.57;8.67;;;;;;;24.34;60.48;99778.24;254389;1104;114866;-79
2021/06/24 19:25:59;;;;;;;10.87;9.63;;;;;;;24.19;60.72;99790.41;255480;1104;115957;-80
2021/06/24 19:31:03;;;;;;;10.13;9.23;;;;;;;24.09;61.48;99809.84;254335;1104;115735;-79
2021/06/24 19:36:10;;;;;;;10.75;8.23;;;;;;;23.72;61.64;99851.31;254257;1103;115568;-75
2021/06/24 19:41:13;;;;;;;11.53;10.40;;;;;;;23.45;61.94;99866.78;254249;1099;116128;-78
2021/06/24 19:46:16;;;;;;;12.53;10.47;;;;;;;23.50;63.18;99871.27;255091;1104;116070;-79
2021/06/24 19:51:21;;;;;;;11.17;10.17;;;;;;;23.56;63.58;99858.32;254217;1104;116056;-78
2021/06/24 19:56:24;;;;;;;13.43;12.00;;;;;;;23.52;63.54;99844.55;254867;1103;115665;-79
2021/06/24 20:01:30;;;;;;;13.63;10.70;;;;;;;23.45;64.20;99820.53;254067;1104;115482;-79
2021/06/24 20:06:35;;;;;;;11.63;10.48;;;;;;;23.42;64.53;99804.84;254143;1104;115652;-78
2021/06/24 20:11:38;;;;;;;14.45;10.38;;;;;;;23.37;64.34;99799.55;254477;1104;116111;-79
2021/06/24 20:16:41;;;;;;;10.33;9.45;;;;;;;23.31;64.63;99819.05;254216;1104;115549;-79
2021/06/24 20:21:45;;;;;;;10.80;9.77;;;;;;;23.23;64.16;99841.61;254775;1104;115458;-79
2021/06/24 20:26:49;;;;;;;11.98;10.38;;;;;;;23.13;64.88;99845.41;256365;1104;114682;-79
2021/06/24 20:31:59;;;;;;;12.75;11.45;;;;;;;23.05;65.31;99827.14;255043;1104;115531;-78
2021/06/24 20:37:03;;;;;;;;;;;;;;;23.02;65.34;99854.95;255881;1103;116473;-77
2021/06/24 20:42:07;;;;;;;11.25;10.15;;;;;;;22.93;65.56;99857.63;255139;1104;103934;-78
2021/06/24 20:47:11;;;;;;;11.30;10.40;;;;;;;22.83;65.75;99857.92;254318;1099;116479;-79
2021/06/24 20:52:15;;;;;;;11.87;10.70;;;;;;;22.67;66.17;99872.98;257258;1104;115072;-79
2021/06/24 20:57:19;;;;;;;14.00;9.83;;;;;;;22.63;66.55;99859.22;257324;1104;116392;-80
2021/06/24 21:02:25;;;;;;;12.33;10.78;;;;;;;22.62;66.55;99862.27;255189;1104;116978;-78
2021/06/24 21:07:28;;;;;;;13.45;11.13;;;;;;;22.61;66.96;99868.82;255273;1104;116614;-77
2021/06/24 21:12:32;;;;;;;12.43;10.48;;;;;;;22.48;67.17;99865.86;255276;1104;116341;-79
2021/06/24 21:17:36;;;;;;;11.70;10.60;;;;;;;22.49;67.40;99869.38;254308;1104;116830;-78
2021/06/24 21:22:47;;;;;;;14.30;12.23;;;;;;;22.49;67.66;99845.73;254640;1104;138320;-78
2021/06/24 21:27:51;;;;;;;12.88;11.68;;;;;;;22.49;67.78;99850.36;255435;1104;117097;-79
2021/06/24 21:32:55;;;;;;;14.40;12.48;;;;;;;22.49;68.02;99855.80;254293;1104;116743;-79
2021/06/24 21:37:59;;;;;;;13.37;11.97;;;;;;;22.48;68.13;99841.41;254407;1099;116455;-78
2021/06/24 21:43:03;;;;;;;14.50;12.68;;;;;;;22.43;68.50;99836.11;254159;1098;116966;-79
2021/06/24 21:48:07;;;;;;;14.80;11.80;;;;;;;22.40;68.63;99811.48;254113;1104;116640;-76
2021/06/24 21:53:11;;;;;;;15.35;10.55;;;;;;;22.32;68.84;99804.88;254431;1103;140489;-78
2021/06/24 21:58:19;;;;;;;16.68;14.70;;;;;;;22.28;69.06;99768.62;254204;1100;117085;-79
2021/06/24 22:03:23;;;;;;;13.25;11.88;;;;;;;22.07;69.07;99740.37;254876;1104;116534;-78
2021/06/24 22:08:26;;;;;;;14.90;12.85;;;;;;;21.81;69.85;99754.55;254330;1104;115972;-78
2021/06/24 22:13:29;;;;;;;15.90;13.13;;;;;;;21.82;70.23;99763.48;255543;1104;216636;-79
2021/06/24 22:18:31;;;;;;;17.23;15.10;;;;;;;21.73;70.22;99754.47;254314;1104;115952;-79
2021/06/24 22:23:35;;;;;;;17.90;14.98;;;;;;;21.72;70.78;99769.95;255123;1103;116153;-79
2021/06/24 22:28:38;;;;;;;15.00;13.50;;;;;;;21.73;70.79;99787.03;255691;1104;116484;-79
2021/06/24 22:33:42;;;;;;;15.85;14.30;;;;;;;21.74;70.91;99767.73;255184;1104;116724;-78
2021/06/24 22:38:45;;;;;;;15.88;14.13;;;;;;;21.64;70.95;99749.01;254380;1098;117283;-78
2021/06/24 22:43:51;;;;;;;17.00;14.25;;;;;;;21.68;71.39;99741.86;256543;1098;117074;-79
2021/06/24 22:48:54;;;;;;;17.03;15.23;;;;;;;21.73;71.49;99732.77;254318;1104;116427;-79
2021/06/24 22:53:57;;;;;;;17.87;15.97;;;;;;;21.58;71.40;99725.81;257465;1104;117157;-79
2021/06/24 22:59:01;;;;;;;15.40;13.80;;;;;;;21.54;71.62;99710.45;255851;1104;117988;-79
2021/06/24 23:04:03;;;;;;;17.68;13.95;;;;;;;21.61;71.99;99703.50;254845;1104;117714;-75
2021/06/24 23:09:06;;;;;;;15.38;13.88;;;;;;;21.65;72.16;99706.41;257070;1099;115835;-79
2021/06/24 23:14:10;;;;;;;14.80;13.27;;;;;;;21.70;72.31;99709.00;254207;1104;115533;-78
2021/06/24 23:19:13;;;;;;;20.68;15.48;;;;;;;21.60;71.82;99682.91;254034;1104;115753;-78
2021/06/24 23:24:17;;;;;;;20.03;17.90;;;;;;;21.46;71.88;99665.88;254307;1100;115925;-78